METAR Formatted Surface Weather Observation
Issued by NWS

Home | Current Version | Previous Version | Text Only | Print | Product List | Glossary On
Versions: 1 2 3 4 5 6 7 8 9 10 11 12 13 14 15 16
808
SAUS46 KLOX 011653
MTRNZY
METAR KNZY 011652Z 00000KT 10SM CLR 13/08 A3026 RMK AO2 SLP245
T01280078



USA.gov is the U.S. government's official web portal to all federal, state and local government web resources and services.